createdAt,value
2018-03-04T00:00:52.356Z,59.80
2018-03-04T00:03:20.765Z,47.72
2018-03-04T00:05:49.161Z,47.67
2018-03-04T00:08:17.565Z,47.92
2018-03-04T00:10:46.099Z,45.42
2018-03-04T00:13:14.508Z,49.05
2018-03-04T00:15:42.907Z,47.62
2018-03-04T00:18:11.306Z,47.45
2018-03-04T00:20:39.775Z,50.60
2018-03-04T00:23:08.303Z,47.35
2018-03-04T00:25:36.728Z,50.45
2018-03-04T00:28:05.112Z,50.65
2018-03-04T00:30:33.500Z,50.20
2018-03-04T00:33:01.887Z,48.28
2018-03-04T00:35:30.422Z,50.38
2018-03-04T00:37:58.822Z,50.38
2018-03-04T00:40:27.225Z,46.60
2018-03-04T00:42:55.602Z,50.80
2018-03-04T00:45:24.079Z,49.70
2018-03-04T00:47:52.538Z,49.60
2018-03-04T00:50:20.935Z,50.35
2018-03-04T00:52:49.421Z,52.72
2018-03-04T00:55:17.818Z,49.78
2018-03-04T00:57:46.318Z,51.55
2018-03-04T01:00:14.831Z,51.50
2018-03-04T01:02:43.228Z,46.60
2018-03-04T01:05:11.631Z,49.30
2018-03-04T01:07:40.129Z,52.33
2018-03-04T01:10:08.566Z,49.95
2018-03-04T01:12:36.949Z,51.30
2018-03-04T01:15:05.485Z,49.10
2018-03-04T01:17:34.037Z,54.00
2018-03-04T01:20:02.425Z,52.55
2018-03-04T01:22:30.830Z,52.22
2018-03-04T01:24:59.248Z,50.65
2018-03-04T01:27:27.635Z,51.08
2018-03-04T01:29:56.411Z,53.42
2018-03-04T01:32:24.813Z,53.03
2018-03-04T01:34:53.195Z,51.55
2018-03-04T01:37:21.608Z,48.92
2018-03-04T01:39:50.002Z,53.65
2018-03-04T01:42:18.490Z,53.20
2018-03-04T01:44:46.883Z,54.88
2018-03-04T01:47:15.297Z,51.92
2018-03-04T01:49:43.787Z,54.05
2018-03-04T01:52:12.203Z,50.45
2018-03-04T01:54:40.656Z,52.95
2018-03-04T01:57:09.113Z,54.08
2018-03-04T01:59:37.507Z,51.90
2018-03-04T02:02:06.145Z,54.65
2018-03-04T02:04:34.618Z,52.55
2018-03-04T02:07:03.071Z,53.30
2018-03-04T02:09:31.863Z,56.35
2018-03-04T02:12:00.266Z,53.28
2018-03-04T02:14:28.658Z,55.05
2018-03-04T02:16:57.510Z,57.15
2018-03-04T02:19:25.908Z,57.00
2018-03-04T02:21:54.312Z,55.08
2018-03-04T02:24:22.705Z,55.97
2018-03-04T02:26:51.140Z,54.65
2018-03-04T02:29:19.547Z,53.33
2018-03-04T02:31:47.944Z,55.63
2018-03-04T02:34:16.356Z,54.13
2018-03-04T02:36:44.753Z,53.75
2018-03-04T02:39:13.231Z,53.15
2018-03-04T02:41:41.622Z,56.72
2018-03-04T02:44:10.078Z,53.65
2018-03-04T02:46:38.468Z,51.67
2018-03-04T02:49:06.871Z,52.00
2018-03-04T02:51:35.280Z,52.25
2018-03-04T02:54:03.675Z,54.58
2018-03-04T02:56:32.129Z,52.65
2018-03-04T02:59:00.526Z,52.55
2018-03-04T03:01:28.919Z,51.35
2018-03-04T03:03:57.331Z,49.83
2018-03-04T03:06:25.720Z,53.17
2018-03-04T03:08:54.194Z,54.33
2018-03-04T03:13:57.342Z,49.70
2018-03-04T03:16:25.752Z,46.70
2018-03-04T03:18:54.164Z,45.17
2018-03-04T03:21:22.563Z,46.42
2018-03-04T03:23:50.938Z,47.28
2018-03-04T03:26:19.399Z,48.30
2018-03-04T03:28:47.762Z,51.53
2018-03-04T03:31:16.168Z,49.55
2018-03-04T03:33:44.562Z,49.08
2018-03-04T03:36:12.945Z,49.97
2018-03-04T03:38:41.398Z,48.15
2018-03-04T03:41:09.801Z,51.22
2018-03-04T03:43:38.186Z,49.88
2018-03-04T03:46:06.643Z,49.55
2018-03-04T03:48:35.030Z,48.97
2018-03-04T03:51:03.491Z,50.35
2018-03-04T03:53:31.860Z,48.87
2018-03-04T03:56:00.266Z,47.53
2018-03-04T03:58:28.656Z,49.65
2018-03-04T04:00:57.206Z,42.78
2018-03-04T04:03:25.588Z,48.90
2018-03-04T04:05:53.991Z,48.35
2018-03-04T04:08:22.404Z,49.97
2018-03-04T04:10:50.797Z,50.75
2018-03-04T04:13:19.236Z,49.42
2018-03-04T04:15:47.640Z,46.47
2018-03-04T04:18:16.037Z,44.90
2018-03-04T04:20:44.424Z,42.35
2018-03-04T04:23:12.811Z,44.08
2018-03-04T04:25:41.354Z,48.53
2018-03-04T04:28:09.723Z,41.92
2018-03-04T04:30:38.098Z,46.25
2018-03-04T04:33:06.505Z,43.28
2018-03-04T04:35:34.891Z,44.83
2018-03-04T04:38:03.265Z,49.58
2018-03-04T04:40:31.676Z,46.42
2018-03-04T04:43:00.120Z,46.20
2018-03-04T04:45:28.518Z,44.08
2018-03-04T04:47:56.907Z,45.25
2018-03-04T04:50:25.302Z,46.75
2018-03-04T04:52:53.702Z,50.35
2018-03-04T04:55:22.168Z,48.50
2018-03-04T04:57:50.578Z,50.15
2018-03-04T05:00:18.988Z,48.72
2018-03-04T05:02:47.391Z,50.70
2018-03-04T05:05:15.871Z,49.53
2018-03-04T05:07:44.318Z,48.30
2018-03-04T05:10:12.698Z,47.05
2018-03-04T05:12:41.065Z,48.67
2018-03-04T05:15:09.479Z,47.20
2018-03-04T05:17:37.882Z,42.40
2018-03-04T05:20:06.640Z,42.00
2018-03-04T05:22:35.033Z,45.47
2018-03-04T05:25:03.442Z,44.60
2018-03-04T05:27:31.834Z,43.58
2018-03-04T05:30:00.238Z,41.05
2018-03-04T05:32:28.701Z,47.15
2018-03-04T05:34:57.077Z,45.70
2018-03-04T05:37:25.472Z,47.72
2018-03-04T05:39:53.862Z,48.33
2018-03-04T05:42:22.356Z,49.55
2018-03-04T05:44:50.955Z,46.80
2018-03-04T05:47:19.359Z,49.00
2018-03-04T05:49:47.749Z,49.58
2018-03-04T05:52:16.116Z,50.70
2018-03-04T05:54:44.533Z,51.37
2018-03-04T05:57:13.974Z,47.95
2018-03-04T05:59:42.423Z,50.60
2018-03-04T06:02:10.847Z,50.25
2018-03-04T06:04:39.253Z,48.20
2018-03-04T06:07:07.734Z,46.22
2018-03-04T06:09:36.258Z,49.58
2018-03-04T06:12:04.712Z,43.45
2018-03-04T06:14:33.184Z,45.42
2018-03-04T06:17:01.739Z,44.63
2018-03-04T06:19:30.152Z,44.92
2018-03-04T06:21:58.684Z,46.03
2018-03-04T06:24:27.098Z,42.20
2018-03-04T06:26:55.512Z,45.70
2018-03-04T06:29:23.953Z,38.70
2018-03-04T06:31:52.351Z,33.40
2018-03-04T06:34:20.886Z,38.35
2018-03-04T06:36:49.309Z,35.78
2018-03-04T06:39:17.713Z,37.72
2018-03-04T06:41:46.126Z,34.55
2018-03-04T06:44:14.517Z,31.30
2018-03-04T06:46:42.980Z,29.20
2018-03-04T06:49:11.421Z,26.87
2018-03-04T06:51:39.835Z,27.83
2018-03-04T06:54:08.252Z,27.75
2018-03-04T06:56:36.660Z,26.23
2018-03-04T06:59:05.164Z,30.40
2018-03-04T07:01:33.626Z,27.60
2018-03-04T07:04:02.354Z,27.27
2018-03-04T07:06:30.767Z,29.52
2018-03-04T07:08:59.185Z,32.47
2018-03-04T07:11:27.812Z,31.67
2018-03-04T07:13:56.331Z,33.83
2018-03-04T07:16:24.811Z,30.20
2018-03-04T07:18:53.201Z,30.33
2018-03-04T07:21:21.658Z,25.27
2018-03-04T07:23:50.154Z,26.05
2018-03-04T07:26:18.581Z,27.70
2018-03-04T07:28:46.999Z,27.98
2018-03-04T07:31:15.415Z,26.80
2018-03-04T07:33:44.640Z,26.00
2018-03-04T07:36:13.071Z,24.87
2018-03-04T07:38:41.500Z,25.98
2018-03-04T07:41:09.917Z,23.30
2018-03-04T07:43:38.347Z,22.20
2018-03-04T07:46:06.745Z,24.00
2018-03-04T07:48:35.224Z,23.20
2018-03-04T07:51:03.646Z,23.98
2018-03-04T07:53:32.207Z,23.50
2018-03-04T07:56:00.700Z,23.02
2018-03-04T07:58:29.158Z,21.63
2018-03-04T08:00:57.682Z,22.50
2018-03-04T08:03:26.096Z,22.07
2018-03-04T08:05:54.540Z,20.73
2018-03-04T08:08:22.946Z,21.17
2018-03-04T08:10:51.380Z,20.50
2018-03-04T08:13:19.799Z,22.10
2018-03-04T08:15:48.255Z,22.00
2018-03-04T08:18:16.861Z,21.70
2018-03-04T08:20:45.243Z,24.00
2018-03-04T08:23:13.693Z,25.80
2018-03-04T08:25:42.107Z,24.67
2018-03-04T08:28:22.211Z,22.70
2018-03-04T08:30:51.551Z,22.47
2018-03-04T08:33:20.020Z,19.67
2018-03-04T08:35:48.584Z,18.70
2018-03-04T08:38:17.008Z,17.67
2018-03-04T08:40:45.392Z,18.57
2018-03-04T08:43:13.805Z,19.20
2018-03-04T08:45:42.251Z,19.67
2018-03-04T08:48:10.699Z,19.97
2018-03-04T08:50:39.120Z,18.50
2018-03-04T08:53:07.850Z,20.10
2018-03-04T08:55:36.345Z,21.53
2018-03-04T08:58:04.826Z,21.37
2018-03-04T09:00:33.231Z,20.20
2018-03-04T09:03:01.690Z,20.30
2018-03-04T09:05:30.193Z,18.67
2018-03-04T09:07:58.595Z,16.60
2018-03-04T09:10:27.042Z,17.53
2018-03-04T09:12:55.467Z,15.47
2018-03-04T09:15:23.901Z,13.50
2018-03-04T09:17:52.352Z,15.03
2018-03-04T09:20:20.801Z,14.23
2018-03-04T09:22:49.504Z,15.30
2018-03-04T09:25:17.908Z,15.07
2018-03-04T09:27:46.519Z,14.30
2018-03-04T09:30:14.983Z,14.53
2018-03-04T09:32:43.474Z,13.80
2018-03-04T09:35:11.958Z,15.20
2018-03-04T09:37:40.425Z,14.10
2018-03-04T09:40:08.834Z,14.40
2018-03-04T09:42:37.304Z,14.27
2018-03-04T09:45:05.732Z,14.23
2018-03-04T09:47:34.177Z,14.27
2018-03-04T09:50:02.675Z,13.10
2018-03-04T09:52:31.081Z,12.10
2018-03-04T09:54:59.564Z,12.10
2018-03-04T09:57:28.055Z,11.87
2018-03-04T09:59:56.452Z,11.63
2018-03-04T10:02:24.883Z,13.77
2018-03-04T10:04:53.300Z,12.10
2018-03-04T10:07:21.843Z,13.40
2018-03-04T10:09:50.343Z,13.60
2018-03-04T10:12:18.777Z,16.07
2018-03-04T10:14:47.291Z,16.07
2018-03-04T10:17:15.903Z,15.63
2018-03-04T10:19:44.836Z,14.97
2018-03-04T10:22:13.364Z,15.10
2018-03-04T10:24:41.829Z,13.97
2018-03-04T10:27:10.353Z,13.50
2018-03-04T10:29:38.789Z,13.97
2018-03-04T10:32:07.306Z,16.00
2018-03-04T10:34:35.703Z,16.13
2018-03-04T10:37:04.878Z,16.60
2018-03-04T10:39:33.323Z,19.20
2018-03-04T10:42:01.760Z,18.20
2018-03-04T10:44:30.338Z,17.37
2018-03-04T10:46:58.792Z,18.07
2018-03-04T10:49:27.250Z,17.57
2018-03-04T10:51:55.654Z,14.07
2018-03-04T10:54:24.251Z,18.77
2018-03-04T10:56:52.838Z,17.67
2018-03-04T10:59:21.402Z,18.93
2018-03-04T11:01:51.320Z,17.90
2018-03-04T11:04:19.761Z,14.70
2018-03-04T11:06:48.185Z,14.53
2018-03-04T11:09:16.662Z,17.47
2018-03-04T11:11:45.186Z,18.70
2018-03-04T11:14:13.605Z,18.67
2018-03-04T11:16:42.135Z,20.40
2018-03-04T11:19:10.541Z,16.50
2018-03-04T11:21:39.085Z,20.57
2018-03-04T11:26:42.392Z,22.10
2018-03-04T11:29:11.802Z,21.70
2018-03-04T11:31:40.250Z,23.53
2018-03-04T11:34:08.696Z,20.70
2018-03-04T11:36:37.139Z,20.23
2018-03-04T11:39:05.913Z,17.50
2018-03-04T11:41:34.383Z,18.27
2018-03-04T11:44:02.816Z,17.67
2018-03-04T11:46:31.255Z,17.73
2018-03-04T11:48:59.752Z,17.27
2018-03-04T11:51:28.263Z,15.63
2018-03-04T11:53:57.088Z,14.40
2018-03-04T11:56:25.556Z,15.27
2018-03-04T11:58:54.091Z,14.30
2018-03-04T12:01:22.553Z,14.90
2018-03-04T12:03:51.077Z,13.50
2018-03-04T12:06:19.546Z,15.80
2018-03-04T12:08:47.954Z,16.80
2018-03-04T12:11:16.354Z,16.53
2018-03-04T12:13:44.751Z,15.30
2018-03-04T12:16:13.214Z,14.13
2018-03-04T12:18:41.688Z,11.30
2018-03-04T12:21:10.099Z,12.23
2018-03-04T12:23:38.519Z,13.13
2018-03-04T12:26:06.938Z,14.30
2018-03-04T12:28:35.487Z,12.80
2018-03-04T12:31:03.962Z,12.73
2018-03-04T12:33:32.415Z,11.70
2018-03-04T12:36:00.990Z,12.60
2018-03-04T12:38:29.374Z,12.27
2018-03-04T12:40:57.876Z,12.23
2018-03-04T12:43:26.438Z,11.10
2018-03-04T12:45:54.983Z,12.47
2018-03-04T12:48:23.478Z,13.37
2018-03-04T12:50:51.875Z,13.93
2018-03-04T12:53:20.453Z,14.57
2018-03-04T12:55:48.865Z,13.93
2018-03-04T12:58:17.392Z,14.33
2018-03-04T13:00:45.843Z,15.57
2018-03-04T13:03:14.287Z,15.70
2018-03-04T13:05:43.131Z,17.73
2018-03-04T13:08:11.552Z,16.83
2018-03-04T13:10:39.990Z,16.90
2018-03-04T13:13:08.407Z,17.93
2018-03-04T13:15:37.026Z,19.17
2018-03-04T13:18:05.572Z,18.53
2018-03-04T13:20:35.121Z,18.27
2018-03-04T13:23:04.115Z,19.83
2018-03-04T13:25:32.584Z,20.10
2018-03-04T13:28:01.040Z,19.80
2018-03-04T13:30:29.646Z,19.93
2018-03-04T13:32:58.119Z,21.20
2018-03-04T13:35:26.534Z,18.77
2018-03-04T13:37:54.965Z,19.40
2018-03-04T13:40:23.516Z,19.23
2018-03-04T13:42:51.991Z,19.13
2018-03-04T13:45:20.400Z,17.83
2018-03-04T13:47:48.994Z,17.20
2018-03-04T13:50:17.415Z,17.00
2018-03-04T13:52:45.930Z,16.60
2018-03-04T13:55:14.470Z,18.33
2018-03-04T13:57:42.902Z,17.87
2018-03-04T14:00:11.357Z,18.67
2018-03-04T14:02:39.817Z,16.83
2018-03-04T14:05:08.228Z,17.30
2018-03-04T14:07:36.944Z,16.33
2018-03-04T14:10:05.407Z,14.80
2018-03-04T14:12:33.975Z,17.20
2018-03-04T14:15:02.398Z,14.80
2018-03-04T14:17:30.834Z,13.43
2018-03-04T14:19:59.543Z,14.63
2018-03-04T14:22:28.136Z,13.70
2018-03-04T14:24:56.598Z,12.93
2018-03-04T14:27:25.678Z,12.43
2018-03-04T14:29:54.152Z,13.50
2018-03-04T14:32:22.639Z,11.70
2018-03-04T14:34:51.164Z,12.37
2018-03-04T14:37:19.611Z,13.10
2018-03-04T14:39:48.020Z,13.27
2018-03-04T14:42:16.621Z,12.30
2018-03-04T14:44:45.257Z,12.40
2018-03-04T14:47:13.768Z,12.50
2018-03-04T14:49:42.208Z,12.03
2018-03-04T14:52:10.662Z,12.70
2018-03-04T14:54:39.156Z,12.23
2018-03-04T14:57:07.704Z,11.70
2018-03-04T14:59:36.145Z,12.07
2018-03-04T15:02:04.614Z,12.23
2018-03-04T15:04:33.086Z,11.87
2018-03-04T15:07:01.666Z,11.60
2018-03-04T15:09:30.191Z,14.47
2018-03-04T15:11:58.753Z,11.60
2018-03-04T15:14:27.245Z,11.20
2018-03-04T15:16:55.874Z,12.60
2018-03-04T15:19:24.331Z,11.97
2018-03-04T15:21:52.844Z,13.50
2018-03-04T15:24:21.352Z,14.37
2018-03-04T15:26:49.787Z,15.20
2018-03-04T15:29:18.484Z,13.97
2018-03-04T15:31:46.888Z,15.97
2018-03-04T15:34:15.552Z,17.70
2018-03-04T15:36:44.054Z,17.80
2018-03-04T15:39:12.487Z,19.87
2018-03-04T15:41:40.972Z,18.67
2018-03-04T15:44:09.388Z,20.70
2018-03-04T15:46:37.927Z,21.53
2018-03-04T15:49:06.383Z,22.90
2018-03-04T15:51:34.810Z,21.87
2018-03-04T15:54:03.262Z,24.37
2018-03-04T15:56:31.764Z,24.77
2018-03-04T15:59:00.306Z,28.80
2018-03-04T16:01:28.779Z,29.17
2018-03-04T16:03:57.200Z,29.93
2018-03-04T16:06:25.691Z,31.40
2018-03-04T16:08:54.118Z,33.30
2018-03-04T16:11:22.582Z,31.93
2018-03-04T16:13:50.995Z,32.40
2018-03-04T16:16:19.401Z,32.27
2018-03-04T16:18:47.833Z,30.83
2018-03-04T16:21:34.768Z,31.37
2018-03-04T16:24:03.568Z,29.70
2018-03-04T16:26:31.980Z,31.97
2018-03-04T16:29:00.482Z,30.97
2018-03-04T16:31:28.903Z,32.10
2018-03-04T16:33:57.477Z,31.30
2018-03-04T16:36:26.017Z,31.00
2018-03-04T16:38:54.517Z,31.57
2018-03-04T16:41:23.074Z,30.63
2018-03-04T16:43:51.516Z,29.30
2018-03-04T16:46:19.970Z,30.00
2018-03-04T16:48:49.191Z,29.83
2018-03-04T16:51:17.590Z,28.37
2018-03-04T16:53:46.151Z,32.80
2018-03-04T16:56:14.789Z,31.00
2018-03-04T16:58:43.346Z,31.30
2018-03-04T17:01:11.863Z,30.90
2018-03-04T17:03:40.390Z,32.03
2018-03-04T17:06:09.092Z,32.13
2018-03-04T17:08:37.532Z,30.70
2018-03-04T17:11:06.057Z,33.60
2018-03-04T17:13:34.471Z,32.50
2018-03-04T17:16:03.363Z,34.70
2018-03-04T17:18:31.918Z,34.47
2018-03-04T17:21:00.572Z,34.50
2018-03-04T17:23:29.091Z,35.50
2018-03-04T17:25:57.487Z,37.40
2018-03-04T17:28:25.888Z,35.30
2018-03-04T17:30:54.341Z,35.87
2018-03-04T17:33:22.753Z,35.67
2018-03-04T17:35:51.151Z,36.73
2018-03-04T17:38:19.567Z,34.13
2018-03-04T17:40:47.969Z,34.87
2018-03-04T17:43:16.486Z,36.10
2018-03-04T17:45:44.891Z,34.93
2018-03-04T17:48:13.376Z,34.57
2018-03-04T17:50:41.777Z,35.13
2018-03-04T17:53:10.182Z,33.23
2018-03-04T17:55:38.660Z,33.37
2018-03-04T17:58:07.058Z,35.57
2018-03-04T18:00:35.446Z,37.00
2018-03-04T18:03:03.853Z,35.87
2018-03-04T18:05:32.304Z,33.90
2018-03-04T18:08:00.754Z,36.60
2018-03-04T18:10:29.167Z,35.87
2018-03-04T18:12:57.563Z,35.37
2018-03-04T18:15:25.981Z,37.37
2018-03-04T18:17:54.395Z,37.50
2018-03-04T18:20:23.093Z,37.13
2018-03-04T18:22:51.485Z,34.90
2018-03-04T18:25:19.894Z,37.10
2018-03-04T18:27:48.298Z,35.27
2018-03-04T18:30:16.831Z,38.60
2018-03-04T18:32:45.635Z,36.10
2018-03-04T18:35:14.051Z,36.63
2018-03-04T18:37:42.439Z,36.00
2018-03-04T18:40:10.850Z,37.63
2018-03-04T18:42:39.273Z,35.33
2018-03-04T18:45:07.724Z,36.00
2018-03-04T18:47:36.128Z,36.50
2018-03-04T18:50:04.607Z,34.90
2018-03-04T18:52:32.995Z,36.80
2018-03-04T18:55:01.407Z,36.97
2018-03-04T18:57:30.612Z,37.73
2018-03-04T18:59:59.015Z,40.90
2018-03-04T19:02:27.432Z,38.20
2018-03-04T19:04:55.832Z,35.97
2018-03-04T19:07:24.227Z,36.73
2018-03-04T19:09:52.745Z,39.37
2018-03-04T19:12:21.163Z,37.60
2018-03-04T19:14:49.568Z,37.47
2018-03-04T19:17:18.018Z,40.57
2018-03-04T19:19:46.440Z,39.97
2018-03-04T19:22:14.922Z,40.50
2018-03-04T19:24:43.354Z,41.00
2018-03-04T19:27:11.766Z,38.53
2018-03-04T19:29:40.151Z,38.63
2018-03-04T19:32:08.634Z,40.30
2018-03-04T19:34:37.104Z,40.70
2018-03-04T19:40:07.502Z,40.20
2018-03-04T19:42:35.912Z,38.83
2018-03-04T19:47:45.548Z,39.63
2018-03-04T19:50:14.002Z,38.60
2018-03-04T19:52:42.495Z,39.53
2018-03-04T19:55:10.881Z,40.80
2018-03-04T19:57:39.330Z,41.20
2018-03-04T20:00:07.808Z,39.10
2018-03-04T20:02:36.669Z,38.80
2018-03-04T20:05:05.190Z,39.97
2018-03-04T20:07:33.613Z,42.33
2018-03-04T20:10:01.995Z,38.40
2018-03-04T20:12:30.564Z,38.27
2018-03-04T20:14:59.003Z,40.60
2018-03-04T20:17:27.390Z,40.17
2018-03-04T20:19:55.794Z,39.50
2018-03-04T20:22:24.192Z,37.03
2018-03-04T20:24:52.784Z,38.07
2018-03-04T20:27:21.200Z,37.07
2018-03-04T20:29:49.616Z,36.50
2018-03-04T20:32:18.008Z,37.07
2018-03-04T20:34:46.606Z,37.13
2018-03-04T20:37:15.403Z,36.20
2018-03-04T20:39:43.820Z,37.27
2018-03-04T20:42:12.223Z,36.57
2018-03-04T20:44:40.618Z,36.03
2018-03-04T20:47:09.017Z,36.97
2018-03-04T20:49:37.478Z,35.70
2018-03-04T20:52:05.907Z,35.20
2018-03-04T20:54:34.526Z,36.87
2018-03-04T20:57:03.056Z,36.17
2018-03-04T20:59:31.555Z,38.90
2018-03-04T21:02:00.031Z,37.63
2018-03-04T21:04:28.423Z,37.93
2018-03-04T21:06:56.823Z,39.10
2018-03-04T21:09:25.265Z,38.40
2018-03-04T21:11:53.658Z,38.60
2018-03-04T21:14:22.207Z,39.30
2018-03-04T21:16:50.628Z,37.80
2018-03-04T21:19:19.106Z,39.70
2018-03-04T21:21:47.526Z,39.30
2018-03-04T21:24:15.938Z,41.20
2018-03-04T21:26:44.408Z,40.10
2018-03-04T21:29:12.799Z,38.07
2018-03-04T21:31:41.205Z,40.83
2018-03-04T21:34:09.682Z,41.13
2018-03-04T21:36:38.099Z,40.93
2018-03-04T21:39:06.642Z,39.53
2018-03-04T21:41:35.044Z,42.53
2018-03-04T21:44:03.673Z,41.17
2018-03-04T21:46:32.179Z,41.20
2018-03-04T21:49:00.578Z,41.53
2018-03-04T21:51:29.042Z,40.80
2018-03-04T21:53:57.444Z,42.90
2018-03-04T21:56:25.881Z,39.83
2018-03-04T21:58:54.270Z,42.70
2018-03-04T22:01:22.702Z,38.67
2018-03-04T22:03:51.173Z,41.08
2018-03-04T22:06:19.595Z,40.97
2018-03-04T22:08:48.033Z,41.70
2018-03-04T22:11:16.450Z,39.20
2018-03-04T22:13:44.971Z,39.13
2018-03-04T22:16:13.582Z,41.30
2018-03-04T22:18:42.051Z,40.43
2018-03-04T22:21:10.488Z,36.40
2018-03-04T22:23:38.878Z,38.30
2018-03-04T22:26:07.305Z,35.40
2018-03-04T22:28:35.762Z,37.42
2018-03-04T22:31:04.223Z,35.90
2018-03-04T22:33:32.640Z,36.83
2018-03-04T22:36:01.036Z,38.10
2018-03-04T22:38:29.446Z,35.43
2018-03-04T22:40:58.227Z,36.27
2018-03-04T22:43:26.623Z,35.23
2018-03-04T22:45:55.018Z,33.40
2018-03-04T22:48:23.483Z,34.30
2018-03-04T22:50:51.899Z,33.57
2018-03-04T22:53:20.464Z,31.83
2018-03-04T22:55:49.110Z,33.77
2018-03-04T22:58:17.479Z,32.07
2018-03-04T23:00:45.887Z,32.27
2018-03-04T23:03:14.278Z,31.60
2018-03-04T23:05:42.719Z,33.77
2018-03-04T23:08:11.411Z,31.67
2018-03-04T23:10:39.952Z,33.53
2018-03-04T23:13:08.387Z,33.73
2018-03-04T23:15:36.784Z,32.17
2018-03-04T23:18:06.351Z,33.10
2018-03-04T23:20:34.763Z,30.70
2018-03-04T23:23:03.340Z,32.20
2018-03-04T23:25:31.749Z,32.27
2018-03-04T23:28:00.156Z,31.20
2018-03-04T23:30:28.583Z,31.60
2018-03-04T23:32:57.071Z,29.87
2018-03-04T23:35:25.531Z,29.57
2018-03-04T23:37:53.938Z,30.50
2018-03-04T23:40:22.347Z,27.50
2018-03-04T23:42:50.782Z,30.00
2018-03-04T23:45:19.265Z,28.50
2018-03-04T23:47:47.662Z,24.87
2018-03-04T23:50:16.088Z,26.00
2018-03-04T23:52:44.817Z,25.83
2018-03-04T23:55:13.414Z,24.43
2018-03-04T23:57:44.095Z,27.80
